createdAt,value
2022-12-25T00:02:13.950Z,0.93
2022-12-25T00:04:42.223Z,0.97
2022-12-25T00:07:10.491Z,1.63
2022-12-25T00:09:38.814Z,2.40
2022-12-25T00:12:07.273Z,1.97
2022-12-25T00:14:35.572Z,1.87
2022-12-25T00:17:04.224Z,1.77
2022-12-25T00:19:33.834Z,3.07
2022-12-25T00:22:02.196Z,1.03
2022-12-25T00:24:30.633Z,1.10
2022-12-25T00:26:59.077Z,1.23
2022-12-25T00:29:27.500Z,1.03
2022-12-25T00:31:55.995Z,1.83
2022-12-25T00:34:24.452Z,3.17
2022-12-25T00:36:54.203Z,1.70
2022-12-25T00:39:22.623Z,2.13
2022-12-25T00:42:08.389Z,1.33
2022-12-25T00:44:37.367Z,2.37
2022-12-25T00:47:05.981Z,1.67
2022-12-25T00:49:34.422Z,2.60
2022-12-25T00:52:04.173Z,2.63
2022-12-25T00:54:32.540Z,1.70
2022-12-25T00:57:00.916Z,3.43
2022-12-25T00:59:29.345Z,2.43
2022-12-25T01:02:17.812Z,2.53
2022-12-25T01:04:46.312Z,3.13
2022-12-25T01:07:17.020Z,4.33
2022-12-25T01:10:03.451Z,3.43
2022-12-25T01:12:31.828Z,2.23
2022-12-25T01:15:00.189Z,3.30
2022-12-25T01:17:28.741Z,1.93
2022-12-25T01:19:57.122Z,2.27
2022-12-25T01:22:26.867Z,4.47
2022-12-25T01:24:55.202Z,3.50
2022-12-25T01:27:23.459Z,3.53
2022-12-25T01:29:51.830Z,2.40
2022-12-25T01:32:20.164Z,2.67
2022-12-25T01:34:53.883Z,1.90
2022-12-25T01:37:24.289Z,2.00
2022-12-25T01:39:53.967Z,5.33
2022-12-25T01:42:23.631Z,3.07
2022-12-25T01:45:10.853Z,3.30
2022-12-25T01:47:39.128Z,4.53
2022-12-25T01:50:07.946Z,1.83
2022-12-25T01:52:36.265Z,3.17
2022-12-25T01:55:06.176Z,1.83
2022-12-25T01:57:35.535Z,3.27
2022-12-25T02:00:03.869Z,4.97
2022-12-25T02:02:32.255Z,4.47
2022-12-25T02:05:01.000Z,3.33
2022-12-25T02:07:29.717Z,3.23
2022-12-25T02:09:57.983Z,5.30
2022-12-25T02:12:27.781Z,2.80
2022-12-25T02:15:01.229Z,2.77
2022-12-25T02:17:34.862Z,3.97
2022-12-25T02:20:14.901Z,2.83
2022-12-25T02:22:46.594Z,2.63
2022-12-25T02:25:16.879Z,2.33
2022-12-25T02:28:03.021Z,3.47
2022-12-25T02:30:32.827Z,2.87
2022-12-25T02:33:15.971Z,3.97
2022-12-25T02:35:44.277Z,4.67
2022-12-25T02:38:13.144Z,3.07
2022-12-25T02:40:40.941Z,2.87
2022-12-25T02:43:27.778Z,2.97
2022-12-25T02:46:15.750Z,2.40
2022-12-25T02:49:03.305Z,4.93
2022-12-25T02:51:50.021Z,2.87
2022-12-25T02:54:36.628Z,3.00
2022-12-25T02:57:22.685Z,2.53
2022-12-25T03:00:08.719Z,3.57
2022-12-25T03:02:56.015Z,3.17
2022-12-25T03:05:42.947Z,3.97
2022-12-25T03:08:12.298Z,4.93
2022-12-25T03:10:59.146Z,5.03
2022-12-25T03:13:28.655Z,2.67
2022-12-25T03:16:17.011Z,4.17
2022-12-25T03:18:46.837Z,6.47
2022-12-25T03:21:32.979Z,3.53
2022-12-25T03:24:16.354Z,2.97
2022-12-25T03:26:56.923Z,4.47
2022-12-25T03:29:42.989Z,3.37
2022-12-25T03:32:12.860Z,2.97
2022-12-25T03:35:00.937Z,3.17
2022-12-25T03:37:48.302Z,4.30
2022-12-25T03:40:35.602Z,2.90
2022-12-25T03:43:24.863Z,2.70
2022-12-25T03:46:11.478Z,2.53
2022-12-25T03:48:57.757Z,4.53
2022-12-25T03:51:45.766Z,4.37
2022-12-25T03:54:31.913Z,2.17
2022-12-25T03:57:17.587Z,2.70
2022-12-25T04:00:03.721Z,4.00
2022-12-25T04:02:49.474Z,3.07
2022-12-25T04:05:35.822Z,3.00
2022-12-25T04:08:34.540Z,2.40
2022-12-25T04:11:20.129Z,3.47
2022-12-25T04:14:06.198Z,2.90
2022-12-25T04:16:52.261Z,4.30
2022-12-25T04:19:38.082Z,2.57
2022-12-25T04:22:24.016Z,3.10
2022-12-25T04:25:11.318Z,2.60
2022-12-25T04:27:53.491Z,3.37
2022-12-25T04:30:39.493Z,3.10
2022-12-25T04:33:25.426Z,2.90
2022-12-25T04:36:12.191Z,3.03
2022-12-25T04:38:40.584Z,4.77
2022-12-25T04:41:10.705Z,2.20
2022-12-25T04:43:39.054Z,1.57
2022-12-25T04:46:07.541Z,2.77
2022-12-25T04:48:36.474Z,2.17
2022-12-25T04:51:14.539Z,3.13
2022-12-25T04:53:42.826Z,3.50
2022-12-25T04:56:12.513Z,1.73
2022-12-25T04:58:40.794Z,2.90
2022-12-25T05:01:09.318Z,3.37
2022-12-25T05:03:37.634Z,2.30
2022-12-25T05:06:06.438Z,2.17
2022-12-25T05:08:34.995Z,2.43
2022-12-25T05:11:06.472Z,2.27
2022-12-25T05:13:36.134Z,1.37
2022-12-25T05:16:06.381Z,2.50
2022-12-25T05:18:34.687Z,2.53
2022-12-25T05:21:03.085Z,2.33
2022-12-25T05:23:31.384Z,1.30
2022-12-25T05:25:59.682Z,2.17
2022-12-25T05:28:27.969Z,1.43
2022-12-25T05:30:59.303Z,3.57
2022-12-25T05:33:27.627Z,1.90
2022-12-25T05:35:55.918Z,5.90
2022-12-25T05:38:24.241Z,2.53
2022-12-25T05:40:52.703Z,2.17
2022-12-25T05:43:21.121Z,5.10
2022-12-25T05:45:49.540Z,1.53
2022-12-25T05:48:19.246Z,2.17
2022-12-25T05:50:47.530Z,1.30
2022-12-25T05:53:16.161Z,2.00
2022-12-25T05:55:44.714Z,1.80
2022-12-25T05:58:13.213Z,1.50
2022-12-25T06:00:41.569Z,1.60
2022-12-25T06:03:09.907Z,1.97
2022-12-25T06:05:40.829Z,3.23
2022-12-25T06:08:09.164Z,2.37
2022-12-25T06:10:37.895Z,2.23
2022-12-25T06:13:06.159Z,1.93
2022-12-25T06:15:34.543Z,2.83
2022-12-25T06:18:02.852Z,4.00
2022-12-25T06:20:31.375Z,3.07
2022-12-25T06:23:01.088Z,2.77
2022-12-25T06:25:29.363Z,2.10
2022-12-25T06:27:57.636Z,2.27
2022-12-25T06:30:25.950Z,1.23
2022-12-25T06:32:54.236Z,1.53
2022-12-25T06:35:22.492Z,1.83
2022-12-25T06:37:50.776Z,1.53
2022-12-25T06:40:20.462Z,1.07
2022-12-25T06:42:48.805Z,3.47
2022-12-25T06:45:17.124Z,1.47
2022-12-25T06:47:45.455Z,2.13
2022-12-25T06:50:13.754Z,0.73
2022-12-25T06:52:42.062Z,1.00
2022-12-25T06:55:10.796Z,1.40
2022-12-25T06:57:40.492Z,1.37
2022-12-25T07:00:09.574Z,1.80
2022-12-25T07:02:38.593Z,1.30
2022-12-25T07:05:07.369Z,1.50
2022-12-25T07:07:35.688Z,0.60
2022-12-25T07:10:03.984Z,1.30
2022-12-25T07:12:32.323Z,1.30
2022-12-25T07:15:02.047Z,1.00
2022-12-25T07:17:30.364Z,0.97
2022-12-25T07:19:58.676Z,1.70
2022-12-25T07:22:27.003Z,0.77
2022-12-25T07:24:55.413Z,0.97
2022-12-25T07:27:23.727Z,0.83
2022-12-25T07:29:52.023Z,1.20
2022-12-25T07:32:21.669Z,0.83
2022-12-25T07:34:49.956Z,1.50
2022-12-25T07:37:18.361Z,0.70
2022-12-25T07:39:46.659Z,2.30
2022-12-25T07:42:14.966Z,1.40
2022-12-25T07:44:43.754Z,1.03
2022-12-25T07:47:12.075Z,0.60
2022-12-25T07:49:41.762Z,1.40
2022-12-25T07:52:10.186Z,1.63
2022-12-25T07:54:38.458Z,0.93
2022-12-25T07:57:06.715Z,0.73
2022-12-25T07:59:35.042Z,0.70
2022-12-25T08:02:03.513Z,0.97
2022-12-25T08:04:31.911Z,0.90
2022-12-25T08:07:01.571Z,1.00
2022-12-25T08:09:29.849Z,0.50
2022-12-25T08:11:58.213Z,1.07
2022-12-25T08:14:26.809Z,0.57
2022-12-25T08:16:55.210Z,1.30
2022-12-25T08:19:23.531Z,1.77
2022-12-25T08:21:51.870Z,0.70
2022-12-25T08:24:21.527Z,0.80
2022-12-25T08:26:49.977Z,0.67
2022-12-25T08:29:18.275Z,0.50
2022-12-25T08:31:46.887Z,0.97
2022-12-25T08:34:15.465Z,1.40
2022-12-25T08:36:43.773Z,1.30
2022-12-25T08:39:12.094Z,1.07
2022-12-25T08:41:41.826Z,0.40
2022-12-25T08:44:11.275Z,0.70
2022-12-25T08:46:40.586Z,0.73
2022-12-25T08:49:08.963Z,0.80
2022-12-25T08:51:37.928Z,0.70
2022-12-25T08:54:06.267Z,0.53
2022-12-25T08:56:36.083Z,0.70
2022-12-25T08:59:05.898Z,0.57
2022-12-25T09:01:34.256Z,1.13
2022-12-25T09:04:02.638Z,1.30
2022-12-25T09:06:31.121Z,0.43
2022-12-25T09:08:59.447Z,0.50
2022-12-25T09:11:27.719Z,0.57
2022-12-25T09:13:56.129Z,0.37
2022-12-25T09:16:25.866Z,0.53
2022-12-25T09:18:54.199Z,0.93
2022-12-25T09:21:22.527Z,0.30
2022-12-25T09:23:50.858Z,0.50
2022-12-25T09:26:19.411Z,0.40
2022-12-25T09:28:51.977Z,0.40
2022-12-25T09:31:20.860Z,1.57
2022-12-25T09:33:50.926Z,0.40
2022-12-25T09:36:21.276Z,2.37
2022-12-25T09:38:49.611Z,0.50
2022-12-25T09:41:19.118Z,0.50
2022-12-25T09:43:48.672Z,0.67
2022-12-25T09:46:17.299Z,0.30
2022-12-25T09:48:47.433Z,0.47
2022-12-25T09:51:17.679Z,0.47
2022-12-25T09:53:47.552Z,0.77
2022-12-25T09:56:16.301Z,0.47
2022-12-25T09:58:44.563Z,1.30
2022-12-25T10:01:15.709Z,0.43
2022-12-25T10:03:48.603Z,0.40
2022-12-25T10:06:20.185Z,0.57
2022-12-25T10:08:56.428Z,1.03
2022-12-25T10:11:27.849Z,0.60
2022-12-25T10:14:05.967Z,0.40
2022-12-25T10:16:36.420Z,0.33
2022-12-25T10:19:11.658Z,0.50
2022-12-25T10:21:41.625Z,1.33
2022-12-25T10:24:12.670Z,1.90
2022-12-25T10:26:40.935Z,0.83
2022-12-25T10:29:14.354Z,0.30
2022-12-25T10:31:42.803Z,0.57
2022-12-25T10:34:11.244Z,0.37
2022-12-25T10:36:41.353Z,2.20
2022-12-25T10:39:09.709Z,0.60
2022-12-25T10:41:43.875Z,0.50
2022-12-25T10:44:15.732Z,0.40
2022-12-25T10:46:44.333Z,0.67
2022-12-25T10:49:15.298Z,0.83
2022-12-25T10:51:45.152Z,0.63
2022-12-25T10:54:21.449Z,0.30
2022-12-25T10:56:56.480Z,0.93
2022-12-25T10:59:24.843Z,0.50
2022-12-25T11:01:55.509Z,0.67
2022-12-25T11:04:24.664Z,0.57
2022-12-25T11:07:02.097Z,0.60
2022-12-25T11:09:30.574Z,0.40
2022-12-25T11:11:58.874Z,0.40
2022-12-25T11:14:28.124Z,0.50
2022-12-25T11:16:56.552Z,0.60
2022-12-25T11:19:26.182Z,0.50
2022-12-25T11:21:54.884Z,0.50
2022-12-25T11:24:26.772Z,2.93
2022-12-25T11:26:55.539Z,0.77
2022-12-25T11:29:25.003Z,0.50
2022-12-25T11:31:53.690Z,0.60
2022-12-25T11:34:29.161Z,0.50
2022-12-25T11:36:57.575Z,0.93
2022-12-25T11:39:28.852Z,0.60
2022-12-25T11:41:58.378Z,1.07
2022-12-25T11:44:28.129Z,1.93
2022-12-25T11:46:56.457Z,0.60
2022-12-25T11:49:25.080Z,2.67
2022-12-25T11:51:53.959Z,1.43
2022-12-25T11:54:23.747Z,1.10
2022-12-25T11:56:53.415Z,0.90
2022-12-25T11:59:22.891Z,0.97
2022-12-25T12:01:52.029Z,1.53
2022-12-25T12:04:24.407Z,0.60
2022-12-25T12:06:58.316Z,1.10
2022-12-25T12:09:28.590Z,0.70
2022-12-25T12:12:00.315Z,0.77
2022-12-25T12:14:33.468Z,1.53
2022-12-25T12:17:01.883Z,0.83
2022-12-25T12:19:30.731Z,1.73
2022-12-25T12:21:59.500Z,1.10
2022-12-25T12:24:29.951Z,1.40
2022-12-25T12:27:03.451Z,1.10
2022-12-25T12:29:32.305Z,0.30
2022-12-25T12:32:01.696Z,1.17
2022-12-25T12:34:30.701Z,0.90
2022-12-25T12:37:01.408Z,3.37
2022-12-25T12:39:31.727Z,4.03
2022-12-25T12:42:00.015Z,2.53
2022-12-25T12:44:32.733Z,4.77
2022-12-25T12:47:00.995Z,5.40
2022-12-25T12:49:29.700Z,3.30
2022-12-25T12:52:04.489Z,8.00
2022-12-25T12:54:32.860Z,4.60
2022-12-25T12:57:01.608Z,4.37
2022-12-25T12:59:34.926Z,4.07
2022-12-25T13:02:06.651Z,5.50
2022-12-25T13:04:53.412Z,4.77
2022-12-25T13:07:44.431Z,3.93
2022-12-25T13:10:19.431Z,8.17
2022-12-25T13:12:48.007Z,4.87
2022-12-25T13:15:17.991Z,4.77
2022-12-25T13:17:48.258Z,5.87
2022-12-25T13:20:19.247Z,4.53
2022-12-25T13:22:52.569Z,6.53
2022-12-25T13:25:26.661Z,5.77
2022-12-25T13:27:57.830Z,5.03
2022-12-25T13:30:28.290Z,3.27
2022-12-25T13:33:00.061Z,5.00
2022-12-25T13:35:28.567Z,3.77
2022-12-25T13:37:56.930Z,4.67
2022-12-25T13:40:26.006Z,4.47
2022-12-25T13:42:56.476Z,4.37
2022-12-25T13:45:25.919Z,4.80
2022-12-25T13:47:56.131Z,3.60
2022-12-25T13:50:25.253Z,3.40
2022-12-25T13:52:53.576Z,3.23
2022-12-25T13:55:22.351Z,2.87
2022-12-25T13:57:52.205Z,2.47
2022-12-25T14:00:21.430Z,2.20
2022-12-25T14:02:50.120Z,2.40
2022-12-25T14:05:25.170Z,2.03
2022-12-25T14:07:54.380Z,6.27
2022-12-25T14:10:22.808Z,3.47
2022-12-25T14:12:51.375Z,4.23
2022-12-25T14:15:20.837Z,3.00
2022-12-25T14:17:49.101Z,2.97
2022-12-25T14:20:25.367Z,1.57
2022-12-25T14:22:54.075Z,1.60
2022-12-25T14:25:22.316Z,2.80
2022-12-25T14:27:51.227Z,2.10
2022-12-25T14:30:19.608Z,1.30
2022-12-25T14:32:50.729Z,2.00
2022-12-25T14:35:23.269Z,2.20
2022-12-25T14:37:56.434Z,2.63
2022-12-25T14:40:26.459Z,1.10
2022-12-25T14:42:57.806Z,2.63
2022-12-25T14:45:32.695Z,0.80
2022-12-25T14:48:03.042Z,1.93
2022-12-25T14:50:31.828Z,1.40
2022-12-25T14:53:01.954Z,1.57
2022-12-25T14:55:30.655Z,1.43
2022-12-25T14:57:59.623Z,1.53
2022-12-25T15:00:28.592Z,2.00
2022-12-25T15:02:57.437Z,0.97
2022-12-25T15:05:33.430Z,1.27
2022-12-25T15:08:03.928Z,1.00
2022-12-25T15:11:02.635Z,0.80
2022-12-25T15:13:20.905Z,2.60
2022-12-25T15:15:50.342Z,0.63
2022-12-25T15:18:18.794Z,0.80
2022-12-25T15:20:47.377Z,0.97
2022-12-25T15:23:19.672Z,0.70
2022-12-25T15:25:48.793Z,0.77
2022-12-25T15:28:17.069Z,0.60
2022-12-25T15:30:45.438Z,1.97
2022-12-25T15:33:15.216Z,0.63
2022-12-25T15:35:44.333Z,2.30
2022-12-25T15:38:13.161Z,0.90
2022-12-25T15:40:43.169Z,0.90
2022-12-25T15:43:38.949Z,0.80
2022-12-25T15:46:00.294Z,0.83
2022-12-25T15:48:28.660Z,0.80
2022-12-25T15:50:56.948Z,1.47
2022-12-25T15:53:27.183Z,0.50
2022-12-25T15:55:56.836Z,0.83
2022-12-25T15:58:25.152Z,1.00
2022-12-25T16:00:53.715Z,0.80
2022-12-25T16:03:22.086Z,0.70
2022-12-25T16:05:50.584Z,0.73
2022-12-25T16:08:19.185Z,0.60
2022-12-25T16:10:47.549Z,1.07
2022-12-25T16:13:17.215Z,0.93
2022-12-25T16:15:46.177Z,0.37
2022-12-25T16:18:14.537Z,0.93
2022-12-25T16:20:43.431Z,0.53
2022-12-25T16:23:11.762Z,1.33
2022-12-25T16:25:40.105Z,1.13
2022-12-25T16:28:10.307Z,0.60
2022-12-25T16:30:40.244Z,1.27
2022-12-25T16:33:08.615Z,0.60
2022-12-25T16:35:36.865Z,0.50
2022-12-25T16:38:05.526Z,0.90
2022-12-25T16:40:33.811Z,0.50
2022-12-25T16:43:02.416Z,0.50
2022-12-25T16:45:31.079Z,1.00
2022-12-25T16:48:00.749Z,1.40
2022-12-25T16:50:29.073Z,1.00
2022-12-25T16:52:57.617Z,0.53
2022-12-25T16:55:30.039Z,0.73
2022-12-25T16:57:58.767Z,0.77
2022-12-25T17:00:27.087Z,1.70
2022-12-25T17:02:56.086Z,0.67
2022-12-25T17:05:26.073Z,1.07
2022-12-25T17:07:54.376Z,0.97
2022-12-25T17:10:22.668Z,1.03
2022-12-25T17:12:51.057Z,2.17
2022-12-25T17:15:19.453Z,2.10
2022-12-25T17:17:47.767Z,1.20
2022-12-25T17:20:16.175Z,0.80
2022-12-25T17:22:45.833Z,0.60
2022-12-25T17:25:14.147Z,0.80
2022-12-25T17:27:42.741Z,0.77
2022-12-25T17:30:11.618Z,0.80
2022-12-25T17:32:39.895Z,0.63
2022-12-25T17:35:08.661Z,0.67
2022-12-25T17:37:36.914Z,0.50
2022-12-25T17:40:07.047Z,0.60
2022-12-25T17:42:35.661Z,0.60
2022-12-25T17:45:04.004Z,0.50
2022-12-25T17:47:32.397Z,0.57
2022-12-25T17:50:00.974Z,1.03
2022-12-25T17:52:29.365Z,0.60
2022-12-25T17:54:57.709Z,1.43
2022-12-25T17:57:27.752Z,0.83
2022-12-25T17:59:56.183Z,0.97
2022-12-25T18:02:24.794Z,0.73
2022-12-25T18:04:53.336Z,0.50
2022-12-25T18:07:21.731Z,1.13
2022-12-25T18:09:50.123Z,1.13
2022-12-25T18:12:18.892Z,1.23
2022-12-25T18:14:48.666Z,1.10
2022-12-25T18:17:17.036Z,2.30
2022-12-25T18:19:45.469Z,2.30
2022-12-25T18:22:13.845Z,1.53
2022-12-25T18:24:42.217Z,3.67
2022-12-25T18:27:10.679Z,3.47
2022-12-25T18:29:39.072Z,1.93
2022-12-25T18:32:08.982Z,1.80
2022-12-25T18:34:37.741Z,2.93
2022-12-25T18:37:06.171Z,3.23
2022-12-25T18:39:34.746Z,3.30
2022-12-25T18:42:20.613Z,4.57
2022-12-25T18:44:49.137Z,2.47
2022-12-25T18:47:18.916Z,2.60
2022-12-25T18:49:50.333Z,2.43
2022-12-25T18:52:48.080Z,2.00
2022-12-25T18:55:07.211Z,2.93
2022-12-25T18:57:35.575Z,2.67
2022-12-25T19:00:05.585Z,3.13
2022-12-25T19:02:35.608Z,2.77
2022-12-25T19:05:04.101Z,2.90
2022-12-25T19:07:32.475Z,1.70
2022-12-25T19:10:01.178Z,1.80
2022-12-25T19:12:29.532Z,3.60
2022-12-25T19:14:57.866Z,3.03
2022-12-25T19:17:31.531Z,2.00
2022-12-25T19:20:02.127Z,2.77
2022-12-25T19:22:30.629Z,3.63
2022-12-25T19:24:59.008Z,3.60
2022-12-25T19:27:27.369Z,3.80
2022-12-25T19:29:59.015Z,2.87
2022-12-25T19:32:27.420Z,2.37
2022-12-25T19:34:55.852Z,2.73
2022-12-25T19:37:25.625Z,2.37
2022-12-25T19:39:53.933Z,2.30
2022-12-25T19:42:22.346Z,2.80
2022-12-25T19:44:50.996Z,2.20
2022-12-25T19:47:19.400Z,4.80
2022-12-25T19:49:52.811Z,3.43
2022-12-25T19:52:21.809Z,2.37
2022-12-25T19:54:53.419Z,2.73
2022-12-25T19:57:21.867Z,2.40
2022-12-25T19:59:50.832Z,2.83
2022-12-25T20:02:19.358Z,4.00
2022-12-25T20:04:48.214Z,3.80
2022-12-25T20:07:16.583Z,3.27
2022-12-25T20:09:44.924Z,4.40
2022-12-25T20:12:16.595Z,3.43
2022-12-25T20:14:44.965Z,4.40
2022-12-25T20:17:15.943Z,4.97
2022-12-25T20:19:44.867Z,3.37
2022-12-25T20:22:13.212Z,4.20
2022-12-25T20:24:41.476Z,4.10
2022-12-25T20:27:10.084Z,4.03
2022-12-25T20:29:39.782Z,4.73
2022-12-25T20:32:08.120Z,4.50
2022-12-25T20:34:36.495Z,6.37
2022-12-25T20:37:04.824Z,4.90
2022-12-25T20:39:33.087Z,5.67
2022-12-25T20:42:01.536Z,4.67
2022-12-25T20:44:30.043Z,6.83
2022-12-25T20:47:01.070Z,4.67
2022-12-25T20:49:32.767Z,5.37
2022-12-25T20:52:05.081Z,5.67
2022-12-25T20:54:34.430Z,5.47
2022-12-25T20:57:02.723Z,5.13
2022-12-25T20:59:37.125Z,4.87
2022-12-25T21:02:07.690Z,7.80
2022-12-25T21:04:36.123Z,5.07
2022-12-25T21:07:05.215Z,7.33
2022-12-25T21:09:33.911Z,8.77
2022-12-25T21:12:02.206Z,9.90
2022-12-25T21:14:30.560Z,15.00
2022-12-25T21:16:59.211Z,11.43
2022-12-25T21:19:28.941Z,10.97
2022-12-25T21:21:57.230Z,11.97
2022-12-25T21:24:25.766Z,14.33
2022-12-25T21:26:54.073Z,9.90
2022-12-25T21:29:23.025Z,11.43
2022-12-25T21:32:09.109Z,12.40
2022-12-25T21:34:38.736Z,13.57
2022-12-25T21:37:07.051Z,10.33
2022-12-25T21:39:35.373Z,10.40
2022-12-25T21:42:04.501Z,10.30
2022-12-25T21:44:33.244Z,9.90
2022-12-25T21:47:01.598Z,12.80
2022-12-25T21:49:47.812Z,13.73
2022-12-25T21:52:17.490Z,12.10
2022-12-25T21:54:45.883Z,10.60
2022-12-25T21:57:14.179Z,13.07
2022-12-25T21:59:42.585Z,9.50
2022-12-25T22:02:12.123Z,8.67
2022-12-25T22:04:40.570Z,9.53
2022-12-25T22:07:20.141Z,12.83
2022-12-25T22:09:50.081Z,11.50
2022-12-25T22:12:36.237Z,10.87
2022-12-25T22:15:06.514Z,10.47
2022-12-25T22:17:52.873Z,6.33
2022-12-25T22:20:21.710Z,6.40
2022-12-25T22:22:50.047Z,8.90
2022-12-25T22:25:20.364Z,13.20
2022-12-25T22:27:48.885Z,6.10
2022-12-25T22:30:17.537Z,6.93
2022-12-25T22:32:46.684Z,6.87
2022-12-25T22:35:15.206Z,6.83
2022-12-25T22:37:43.821Z,5.67
2022-12-25T22:40:12.834Z,8.20
2022-12-25T22:42:42.521Z,5.00
2022-12-25T22:45:11.520Z,7.17
2022-12-25T22:47:39.845Z,4.50
2022-12-25T22:50:08.343Z,4.80
2022-12-25T22:52:36.644Z,4.60
2022-12-25T22:55:05.121Z,4.27
2022-12-25T22:57:33.425Z,5.57
2022-12-25T23:00:03.391Z,4.33
2022-12-25T23:02:31.937Z,4.90
2022-12-25T23:05:00.332Z,5.07
2022-12-25T23:07:28.937Z,4.20
2022-12-25T23:09:57.250Z,2.87
2022-12-25T23:12:43.086Z,2.93
2022-12-25T23:15:12.817Z,3.27
2022-12-25T23:17:58.456Z,3.13
2022-12-25T23:20:44.598Z,3.97
2022-12-25T23:23:31.418Z,3.90
2022-12-25T23:26:08.932Z,2.80
2022-12-25T23:28:55.102Z,2.93
2022-12-25T23:31:26.534Z,3.13
2022-12-25T23:33:54.861Z,4.37
2022-12-25T23:36:23.557Z,3.03
2022-12-25T23:38:51.860Z,2.07
2022-12-25T23:41:20.581Z,2.33
2022-12-25T23:43:48.841Z,2.13
2022-12-25T23:46:17.316Z,2.03
2022-12-25T23:48:47.353Z,3.17
2022-12-25T23:51:15.614Z,2.47
2022-12-25T23:53:43.872Z,2.10
2022-12-25T23:56:12.212Z,2.90
2022-12-25T23:58:40.556Z,1.63
